^^
Datos históricos de la estación: Murcia-Puente Tocinos
Diario Informe para Julio 12, 2019 Unidades:  Ambas    Inglés   Métrico
Diario Semanal Mensual Anual Configurable
  Máximo: Mínimo: Media:
Temperatura: 98.2 °F /  36.8 °C 74.7 °F /  23.7 °C 84.6 °F /  29.2 °C
Punto de rocio: 65.7 °F /  18.7 °C 49.5 °F /  9.7 °C 57.9 °F /  14.4 °C
Humedad: 71% 24% 43%
Velocidad viento: 12.3mph /  19.8km/h - 5.3mph /  8.6km/h
Racha viento: 23mph /  37.0km/h - -
Viento- - SE
Presión: 30 in /  1014.2 hPa 29.9 in /  1011.6 hPa -
Precipitación: 0 in /  0.0 mm    
Historical Graphs
 
 
Tabla de datos para Julio 12, 2019
Hora Temperatura Punto de rocio Presión Viento Velocidad viento Racha viento Humedad Intensidad lluvia(por hora) Nubes
00:04 77.9 °F /  25.5 °C 62.4 °F /  16.9 °C 29.9in /  1013.6hPa NNE 5.9mph /  9.5km/h 8.1mph /  13.0km/h 59% 0in /  0.0mm CLR
00:09 77.7 °F /  25.4 °C 62.8 °F /  17.1 °C 29.9in /  1013.6hPa NE 5.9mph /  9.5km/h 8.1mph /  13.0km/h 60% 0in /  0.0mm CLR
00:14 77.7 °F /  25.4 °C 62.8 °F /  17.1 °C 29.9in /  1013.6hPa NE 5.9mph /  9.5km/h 5.8mph /  9.3km/h 60% 0in /  0.0mm CLR
00:19 77.7 °F /  25.4 °C 62.8 °F /  17.1 °C 29.9in /  1013.6hPa NE 4.7mph /  7.6km/h 6.2mph /  10.0km/h 60% 0in /  0.0mm CLR
00:24 77.5 °F /  25.3 °C 63 °F /  17.2 °C 29.9in /  1013.6hPa NE 4.7mph /  7.6km/h 6.9mph /  11.1km/h 61% 0in /  0.0mm CLR
00:29 77.5 °F /  25.3 °C 63.5 °F /  17.5 °C 29.9in /  1013.6hPa NE 4.7mph /  7.6km/h 6.9mph /  11.1km/h 62% 0in /  0.0mm CLR
00:34 77.5 °F /  25.3 °C 63.9 °F /  17.7 °C 29.9in /  1013.7hPa NNE 4.7mph /  7.6km/h 6.9mph /  11.1km/h 63% 0in /  0.0mm CLR
00:39 77.4 °F /  25.2 °C 64.2 °F /  17.9 °C 29.9in /  1013.7hPa NNE 4.3mph /  6.9km/h 6.9mph /  11.1km/h 64% 0in /  0.0mm CLR
00:44 77.2 °F /  25.1 °C 64.6 °F /  18.1 °C 29.9in /  1013.7hPa NNE 4.3mph /  6.9km/h 6.9mph /  11.1km/h 65% 0in /  0.0mm CLR
00:49 77 °F /  25.0 °C 64.2 °F /  17.9 °C 29.9in /  1013.7hPa NE 4.7mph /  7.6km/h 5.8mph /  9.3km/h 65% 0in /  0.0mm CLR
00:54 77.2 °F /  25.1 °C 64.9 °F /  18.3 °C 29.9in /  1013.7hPa NE 4.7mph /  7.6km/h 6.4mph /  10.3km/h 66% 0in /  0.0mm CLR
00:59 77.2 °F /  25.1 °C 64.9 °F /  18.3 °C 29.9in /  1013.7hPa NE 4.3mph /  6.9km/h 4.6mph /  7.4km/h 66% 0in /  0.0mm CLR
01:04 77.2 °F /  25.1 °C 64.9 °F /  18.3 °C 29.9in /  1013.7hPa NE 4.3mph /  6.9km/h 3.5mph /  5.6km/h 66% 0in /  0.0mm CLR
01:09 77.2 °F /  25.1 °C 64.6 °F /  18.1 °C 29.9in /  1013.7hPa NNE 2.4mph /  3.9km/h 3.5mph /  5.6km/h 65% 0in /  0.0mm CLR
01:14 77 °F /  25.0 °C 64.8 °F /  18.2 °C 29.9in /  1013.7hPa NE 2.4mph /  3.9km/h 3.5mph /  5.6km/h 66% 0in /  0.0mm CLR
01:19 76.8 °F /  24.9 °C 64.6 °F /  18.1 °C 29.9in /  1013.8hPa NE 2mph /  3.2km/h 2.3mph /  3.7km/h 66% 0in /  0.0mm CLR
01:24 76.6 °F /  24.8 °C 64.4 °F /  18.0 °C 29.9in /  1013.8hPa NE 2mph /  3.2km/h 2mph /  3.2km/h 66% 0in /  0.0mm CLR
01:29 76.6 °F /  24.8 °C 64.4 °F /  18.0 °C 29.9in /  1013.8hPa NE 1.8mph /  2.9km/h 3.5mph /  5.6km/h 66% 0in /  0.0mm CLR
01:34 76.5 °F /  24.7 °C 64.8 °F /  18.2 °C 29.9in /  1013.6hPa NNE 1.8mph /  2.9km/h 4.6mph /  7.4km/h 67% 0in /  0.0mm CLR
01:39 76.3 °F /  24.6 °C 64.6 °F /  18.1 °C 29.9in /  1013.6hPa NNE 3.1mph /  5.0km/h 5.2mph /  8.4km/h 67% 0in /  0.0mm CLR
01:44 76.3 °F /  24.6 °C 64.6 °F /  18.1 °C 29.9in /  1013.6hPa NNE 3.1mph /  5.0km/h 4.6mph /  7.4km/h 67% 0in /  0.0mm CLR
01:49 75.9 °F /  24.4 °C 64.2 °F /  17.9 °C 29.9in /  1013.5hPa NNE 2.4mph /  3.9km/h 3.5mph /  5.6km/h 67% 0in /  0.0mm CLR
01:54 75.9 °F /  24.4 °C 64.6 °F /  18.1 °C 29.9in /  1013.5hPa NNE 2.4mph /  3.9km/h 4.6mph /  7.4km/h 68% 0in /  0.0mm CLR
01:59 75.9 °F /  24.4 °C 64.9 °F /  18.3 °C 29.9in /  1013.5hPa NNE 2.4mph /  3.9km/h 3.5mph /  5.6km/h 69% 0in /  0.0mm CLR
02:04 75.9 °F /  24.4 °C 64.9 °F /  18.3 °C 29.9in /  1013.5hPa NNE 2.4mph /  3.9km/h 3.6mph /  5.8km/h 69% 0in /  0.0mm CLR
02:09 75.9 °F /  24.4 °C 64.9 °F /  18.3 °C 29.9in /  1013.5hPa NNE 2mph /  3.2km/h 2.3mph /  3.7km/h 69% 0in /  0.0mm CLR
02:14 75.9 °F /  24.4 °C 64.9 °F /  18.3 °C 29.9in /  1013.5hPa NNE 2mph /  3.2km/h 2.3mph /  3.7km/h 69% 0in /  0.0mm CLR
02:19 75.9 °F /  24.4 °C 64.9 °F /  18.3 °C 29.9in /  1013.6hPa NE 1.4mph /  2.3km/h 3.5mph /  5.6km/h 69% 0in /  0.0mm CLR
02:24 75.9 °F /  24.4 °C 64.9 °F /  18.3 °C 29.9in /  1013.6hPa NE 1.4mph /  2.3km/h 3.5mph /  5.6km/h 69% 0in /  0.0mm CLR
02:29 75.9 °F /  24.4 °C 64.9 °F /  18.3 °C 29.9in /  1013.6hPa NE 2mph /  3.2km/h 2.3mph /  3.7km/h 69% 0in /  0.0mm CLR
02:34 75.9 °F /  24.4 °C 64.9 °F /  18.3 °C 29.9in /  1013.4hPa ESE 2mph /  3.2km/h 2.4mph /  3.9km/h 69% 0in /  0.0mm CLR
02:39 76.1 °F /  24.5 °C 65.1 °F /  18.4 °C 29.9in /  1013.4hPa ESE 2mph /  3.2km/h 3.5mph /  5.6km/h 69% 0in /  0.0mm CLR
02:44 76.3 °F /  24.6 °C 64.9 °F /  18.3 °C 29.9in /  1013.4hPa ESE 2mph /  3.2km/h 2.4mph /  3.9km/h 68% 0in /  0.0mm CLR
02:49 76.1 °F /  24.5 °C 64.8 °F /  18.2 °C 29.9in /  1013.2hPa ESE 1.8mph /  2.9km/h 2.9mph /  4.7km/h 68% 0in /  0.0mm CLR
02:54 75.9 °F /  24.4 °C 64.6 °F /  18.1 °C 29.9in /  1013.2hPa ESE 1.8mph /  2.9km/h   68% 0in /  0.0mm CLR
02:59 75.9 °F /  24.4 °C 64.9 °F /  18.3 °C 29.9in /  1013.2hPa NW 1.4mph /  2.3km/h 3.5mph /  5.6km/h 69% 0in /  0.0mm CLR
03:04 75.7 °F /  24.3 °C 64.8 °F /  18.2 °C 29.9in /  1013.5hPa WNW 1.4mph /  2.3km/h 2.9mph /  4.7km/h 69% 0in /  0.0mm CLR
03:09 75.7 °F /  24.3 °C 65.3 °F /  18.5 °C 29.9in /  1013.5hPa WNW 2mph /  3.2km/h   70% 0in /  0.0mm CLR
03:14 75.7 °F /  24.3 °C 65.3 °F /  18.5 °C 29.9in /  1013.5hPa West 2mph /  3.2km/h 2.3mph /  3.7km/h 70% 0in /  0.0mm CLR
03:19 75.6 °F /  24.2 °C 65.1 °F /  18.4 °C 29.9in /  1013.3hPa Calm   2.3mph /  3.7km/h 70% 0in /  0.0mm CLR
03:24 75.6 °F /  24.2 °C 65.1 °F /  18.4 °C 29.9in /  1013.3hPa Calm     70% 0in /  0.0mm CLR
03:29 75.7 °F /  24.3 °C 65.7 °F /  18.7 °C 29.9in /  1013.3hPa Calm     71% 0in /  0.0mm CLR
03:34 75.6 °F /  24.2 °C 64.8 °F /  18.2 °C 29.9in /  1013.2hPa Calm   2.4mph /  3.9km/h 69% 0in /  0.0mm CLR
03:39 75.6 °F /  24.2 °C 64.2 °F /  17.9 °C 29.9in /  1013.2hPa ESE 1.8mph /  2.9km/h 4.6mph /  7.4km/h 68% 0in /  0.0mm CLR
03:44 75.4 °F /  24.1 °C 63.7 °F /  17.6 °C 29.9in /  1013.2hPa SSE 1.8mph /  2.9km/h 4.6mph /  7.4km/h 67% 0in /  0.0mm CLR
03:49 75.2 °F /  24.0 °C 63.1 °F /  17.3 °C 29.9in /  1013.0hPa SSE 2.9mph /  4.7km/h 5.4mph /  8.7km/h 66% 0in /  0.0mm CLR
03:54 75 °F /  23.9 °C 63.3 °F /  17.4 °C 29.9in /  1013.0hPa SSE 2.9mph /  4.7km/h 4.6mph /  7.4km/h 67% 0in /  0.0mm CLR
03:59 75 °F /  23.9 °C 62.4 °F /  16.9 °C 29.9in /  1013.0hPa SSE 3.1mph /  5.0km/h 3.5mph /  5.6km/h 65% 0in /  0.0mm CLR
04:04 75.2 °F /  24.0 °C 61.3 °F /  16.3 °C 29.9in /  1012.8hPa SSE 3.1mph /  5.0km/h 4.6mph /  7.4km/h 62% 0in /  0.0mm CLR
04:09 75.4 °F /  24.1 °C 61 °F /  16.1 °C 29.9in /  1012.8hPa SSW 2.9mph /  4.7km/h 3.5mph /  5.6km/h 61% 0in /  0.0mm CLR
04:14 75.4 °F /  24.1 °C 61 °F /  16.1 °C 29.9in /  1012.8hPa WSW 2.9mph /  4.7km/h 3.5mph /  5.6km/h 61% 0in /  0.0mm CLR
04:19 75.6 °F /  24.2 °C 61.5 °F /  16.4 °C 29.9in /  1013.0hPa West 2mph /  3.2km/h 5.8mph /  9.3km/h 62% 0in /  0.0mm CLR
04:24 75.7 °F /  24.3 °C 62.2 °F /  16.8 °C 29.9in /  1013.0hPa West 2mph /  3.2km/h 4.6mph /  7.4km/h 63% 0in /  0.0mm CLR
04:29 75.6 °F /  24.2 °C 61.2 °F /  16.2 °C 29.9in /  1013.0hPa West 2.9mph /  4.7km/h 4.6mph /  7.4km/h 61% 0in /  0.0mm CLR
04:34 75.6 °F /  24.2 °C 60.3 °F /  15.7 °C 29.9in /  1012.9hPa WSW 2.9mph /  4.7km/h 3.5mph /  5.6km/h 59% 0in /  0.0mm CLR
04:39 75.6 °F /  24.2 °C 60.3 °F /  15.7 °C 29.9in /  1012.9hPa SW 2.9mph /  4.7km/h 4.6mph /  7.4km/h 59% 0in /  0.0mm CLR
04:44 75.6 °F /  24.2 °C 60.3 °F /  15.7 °C 29.9in /  1012.9hPa SW 2.9mph /  4.7km/h 3.5mph /  5.6km/h 59% 0in /  0.0mm CLR
04:49 75.7 °F /  24.3 °C 60.4 °F /  15.8 °C 29.9in /  1012.8hPa SW 2.9mph /  4.7km/h 2.3mph /  3.7km/h 59% 0in /  0.0mm CLR
04:54 75.7 °F /  24.3 °C 60.4 °F /  15.8 °C 29.9in /  1012.8hPa WSW 2.9mph /  4.7km/h 4.6mph /  7.4km/h 59% 0in /  0.0mm CLR
04:59 75.7 °F /  24.3 °C 59.9 °F /  15.5 °C 29.9in /  1012.8hPa SE 2mph /  3.2km/h 5.2mph /  8.4km/h 58% 0in /  0.0mm CLR
05:04 75.7 °F /  24.3 °C 60.4 °F /  15.8 °C 29.9in /  1012.9hPa South 2mph /  3.2km/h 3.5mph /  5.6km/h 59% 0in /  0.0mm CLR
05:09 75.6 °F /  24.2 °C 60.3 °F /  15.7 °C 29.9in /  1012.9hPa SW 2.9mph /  4.7km/h 5.8mph /  9.3km/h 59% 0in /  0.0mm CLR
05:14 75.6 °F /  24.2 °C 60.6 °F /  15.9 °C 29.9in /  1012.9hPa WSW 2.9mph /  4.7km/h 4.6mph /  7.4km/h 60% 0in /  0.0mm CLR
05:19 75.6 °F /  24.2 °C 60.6 °F /  15.9 °C 29.9in /  1012.9hPa SW 3.1mph /  5.0km/h 5.8mph /  9.3km/h 60% 0in /  0.0mm CLR
05:24 75.6 °F /  24.2 °C 60.6 °F /  15.9 °C 29.9in /  1012.9hPa WSW 3.1mph /  5.0km/h 5.4mph /  8.7km/h 60% 0in /  0.0mm CLR
05:29 75.4 °F /  24.1 °C 60.4 °F /  15.8 °C 29.9in /  1012.9hPa SW 3.6mph /  5.8km/h 5.9mph /  9.5km/h 60% 0in /  0.0mm CLR
05:34 75.4 °F /  24.1 °C 60.1 °F /  15.6 °C 29.9in /  1013.1hPa SSW 3.6mph /  5.8km/h 5.9mph /  9.5km/h 59% 0in /  0.0mm CLR
05:39 75 °F /  23.9 °C 59.2 °F /  15.1 °C 29.9in /  1013.1hPa SSW 5.2mph /  8.4km/h 8.1mph /  13.0km/h 58% 0in /  0.0mm CLR
05:44 75 °F /  23.9 °C 59.7 °F /  15.4 °C 29.9in /  1013.1hPa SSW 5.2mph /  8.4km/h 5.8mph /  9.3km/h 59% 0in /  0.0mm CLR
05:49 74.8 °F /  23.8 °C 59.5 °F /  15.3 °C 29.9in /  1013.1hPa SSW 4.3mph /  6.9km/h 6.9mph /  11.1km/h 59% 0in /  0.0mm CLR
05:54 74.8 °F /  23.8 °C 59.5 °F /  15.3 °C 29.9in /  1013.1hPa South 4.3mph /  6.9km/h 8.1mph /  13.0km/h 59% 0in /  0.0mm CLR
05:59 74.8 °F /  23.8 °C 59.5 °F /  15.3 °C 29.9in /  1013.1hPa WSW 5.2mph /  8.4km/h 6.9mph /  11.1km/h 59% 0in /  0.0mm CLR
06:04 74.8 °F /  23.8 °C 59.5 °F /  15.3 °C 29.9in /  1013.3hPa WSW 5.2mph /  8.4km/h 5.8mph /  9.3km/h 59% 0in /  0.0mm CLR
06:09 74.8 °F /  23.8 °C 59.2 °F /  15.1 °C 29.9in /  1013.3hPa SW 4mph /  6.4km/h 4.6mph /  7.4km/h 58% 0in /  0.0mm CLR
06:14 74.7 °F /  23.7 °C 58.8 °F /  14.9 °C 29.9in /  1013.3hPa WSW 4mph /  6.4km/h 4.7mph /  7.6km/h 58% 0in /  0.0mm CLR
06:19 74.7 °F /  23.7 °C 58.8 °F /  14.9 °C 29.9in /  1013.2hPa WSW 3.1mph /  5.0km/h 4.6mph /  7.4km/h 58% 0in /  0.0mm CLR
06:24 74.7 °F /  23.7 °C 58.8 °F /  14.9 °C 29.9in /  1013.2hPa SW 3.1mph /  5.0km/h 4.6mph /  7.4km/h 58% 0in /  0.0mm CLR
06:29 74.7 °F /  23.7 °C 58.8 °F /  14.9 °C 29.9in /  1013.2hPa SW 3.6mph /  5.8km/h 5.8mph /  9.3km/h 58% 0in /  0.0mm CLR
06:34 74.7 °F /  23.7 °C 58.8 °F /  14.9 °C 29.9in /  1013.3hPa SW 3.6mph /  5.8km/h 4.6mph /  7.4km/h 58% 0in /  0.0mm CLR
06:39 74.7 °F /  23.7 °C 58.8 °F /  14.9 °C 29.9in /  1013.3hPa SSW 4mph /  6.4km/h 4.7mph /  7.6km/h 58% 0in /  0.0mm CLR
06:44 74.8 °F /  23.8 °C 58.6 °F /  14.8 °C 29.9in /  1013.3hPa WSW 4mph /  6.4km/h 5.8mph /  9.3km/h 57% 0in /  0.0mm CLR
06:49 74.8 °F /  23.8 °C 58.6 °F /  14.8 °C 29.9in /  1013.3hPa WSW 3.6mph /  5.8km/h 4.6mph /  7.4km/h 57% 0in /  0.0mm CLR
06:54 74.8 °F /  23.8 °C 58.6 °F /  14.8 °C 29.9in /  1013.3hPa SW 3.6mph /  5.8km/h 4.7mph /  7.6km/h 57% 0in /  0.0mm CLR
06:59 74.8 °F /  23.8 °C 58.6 °F /  14.8 °C 29.9in /  1013.3hPa WSW 4mph /  6.4km/h 5.9mph /  9.5km/h 57% 0in /  0.0mm CLR
07:04 74.8 °F /  23.8 °C 58.1 °F /  14.5 °C 29.9in /  1013.3hPa SW 4mph /  6.4km/h 5.8mph /  9.3km/h 56% 0in /  0.0mm CLR
07:09 74.8 °F /  23.8 °C 58.1 °F /  14.5 °C 29.9in /  1013.3hPa SW 4mph /  6.4km/h 6.9mph /  11.1km/h 56% 0in /  0.0mm CLR
07:14 75 °F /  23.9 °C 58.3 °F /  14.6 °C 29.9in /  1013.3hPa SSW 4mph /  6.4km/h 4.6mph /  7.4km/h 56% 0in /  0.0mm CLR
07:19 75 °F /  23.9 °C 58.3 °F /  14.6 °C 29.9in /  1013.3hPa SW 3.6mph /  5.8km/h 5.2mph /  8.4km/h 56% 0in /  0.0mm CLR
07:24 75 °F /  23.9 °C 58.3 °F /  14.6 °C 29.9in /  1013.3hPa WSW 3.6mph /  5.8km/h 4.6mph /  7.4km/h 56% 0in /  0.0mm CLR
07:29 75 °F /  23.9 °C 58.3 °F /  14.6 °C 29.9in /  1013.3hPa SW 3.6mph /  5.8km/h 4.6mph /  7.4km/h 56% 0in /  0.0mm CLR
07:34 75.2 °F /  24.0 °C 58.5 °F /  14.7 °C 29.9in /  1013.4hPa SW 3.6mph /  5.8km/h 3.5mph /  5.6km/h 56% 0in /  0.0mm CLR
07:39 75.4 °F /  24.1 °C 58.6 °F /  14.8 °C 29.9in /  1013.4hPa WSW 2.9mph /  4.7km/h 4.6mph /  7.4km/h 56% 0in /  0.0mm CLR
07:44 75.4 °F /  24.1 °C 58.6 °F /  14.8 °C 29.9in /  1013.4hPa WSW 2.9mph /  4.7km/h 5.8mph /  9.3km/h 56% 0in /  0.0mm CLR
07:49 75.6 °F /  24.2 °C 58.3 °F /  14.6 °C 29.9in /  1013.6hPa West 2.9mph /  4.7km/h 4.6mph /  7.4km/h 55% 0in /  0.0mm CLR
07:54 75.6 °F /  24.2 °C 58.3 °F /  14.6 °C 29.9in /  1013.6hPa WSW 2.9mph /  4.7km/h 4.6mph /  7.4km/h 55% 0in /  0.0mm CLR
07:59 75.6 °F /  24.2 °C 58.3 °F /  14.6 °C 29.9in /  1013.6hPa SW 2.9mph /  4.7km/h 3.6mph /  5.8km/h 55% 0in /  0.0mm CLR
08:04 75.7 °F /  24.3 °C 58.5 °F /  14.7 °C 29.9in /  1013.8hPa West 2.9mph /  4.7km/h 4mph /  6.4km/h 55% 0in /  0.0mm CLR
08:09 75.7 °F /  24.3 °C 58.5 °F /  14.7 °C 29.9in /  1013.8hPa WNW 2.9mph /  4.7km/h 4.6mph /  7.4km/h 55% 0in /  0.0mm CLR
08:14 75.7 °F /  24.3 °C 58.5 °F /  14.7 °C 29.9in /  1013.8hPa West 2.9mph /  4.7km/h 4.6mph /  7.4km/h 55% 0in /  0.0mm CLR
08:19 75.6 °F /  24.2 °C 58.3 °F /  14.6 °C 29.9in /  1013.9hPa West 3.1mph /  5.0km/h 4.6mph /  7.4km/h 55% 0in /  0.0mm CLR
08:24 75.6 °F /  24.2 °C 58.3 °F /  14.6 °C 29.9in /  1013.9hPa WNW 3.1mph /  5.0km/h 4.6mph /  7.4km/h 55% 0in /  0.0mm CLR
08:29 75.7 °F /  24.3 °C 58.5 °F /  14.7 °C 29.9in /  1013.9hPa WNW 2.9mph /  4.7km/h 4.6mph /  7.4km/h 55% 0in /  0.0mm CLR
08:34 75.7 °F /  24.3 °C 58.5 °F /  14.7 °C 29.9in /  1013.9hPa WNW 2.9mph /  4.7km/h 4.6mph /  7.4km/h 55% 0in /  0.0mm CLR
08:39 75.9 °F /  24.4 °C 58.6 °F /  14.8 °C 29.9in /  1013.9hPa NW 3.1mph /  5.0km/h 4.6mph /  7.4km/h 55% 0in /  0.0mm CLR
08:44 76.1 °F /  24.5 °C 58.8 °F /  14.9 °C 29.9in /  1013.9hPa NW 3.1mph /  5.0km/h 2.3mph /  3.7km/h 55% 0in /  0.0mm CLR
08:49 76.6 °F /  24.8 °C 59.4 °F /  15.2 °C 29.9in /  1013.8hPa West 2mph /  3.2km/h 3.5mph /  5.6km/h 55% 0in /  0.0mm CLR
08:54 76.8 °F /  24.9 °C 59.4 °F /  15.2 °C 29.9in /  1013.8hPa NW 2mph /  3.2km/h 3.6mph /  5.8km/h 55% 0in /  0.0mm CLR
08:59 77.4 °F /  25.2 °C 59.4 °F /  15.2 °C 29.9in /  1013.8hPa NW 1.8mph /  2.9km/h 2.3mph /  3.7km/h 54% 0in /  0.0mm CLR
09:04 77.5 °F /  25.3 °C 59.5 °F /  15.3 °C 29.9in /  1013.9hPa West 1.8mph /  2.9km/h 3.5mph /  5.6km/h 54% 0in /  0.0mm CLR
09:09 77.9 °F /  25.5 °C 59.4 °F /  15.2 °C 29.9in /  1013.9hPa WSW 1.8mph /  2.9km/h 3.6mph /  5.8km/h 53% 0in /  0.0mm CLR
09:14 78.3 °F /  25.7 °C 59.7 °F /  15.4 °C 29.9in /  1013.9hPa SSW 1.8mph /  2.9km/h 4.6mph /  7.4km/h 53% 0in /  0.0mm CLR
09:19 78.4 °F /  25.8 °C 59.4 °F /  15.2 °C 29.9in /  1014.0hPa SW 2.4mph /  3.9km/h 4.6mph /  7.4km/h 52% 0in /  0.0mm CLR
09:24 78.4 °F /  25.8 °C 58.3 °F /  14.6 °C 29.9in /  1014.0hPa SW 2.4mph /  3.9km/h 3.5mph /  5.6km/h 50% 0in /  0.0mm CLR
09:29 79 °F /  26.1 °C 58.8 °F /  14.9 °C 29.9in /  1014.0hPa WSW 2.4mph /  3.9km/h 3.5mph /  5.6km/h 50% 0in /  0.0mm CLR
09:34 79.3 °F /  26.3 °C 58.5 °F /  14.7 °C 29.9in /  1014.1hPa WSW 2.4mph /  3.9km/h 4.6mph /  7.4km/h 49% 0in /  0.0mm CLR
09:39 79.9 °F /  26.6 °C 59 °F /  15.0 °C 29.9in /  1014.1hPa WSW 2.4mph /  3.9km/h 4.6mph /  7.4km/h 49% 0in /  0.0mm CLR
09:44 80.2 °F /  26.8 °C 59.4 °F /  15.2 °C 29.9in /  1014.1hPa SSW 2.4mph /  3.9km/h 3.6mph /  5.8km/h 49% 0in /  0.0mm CLR
09:49 80.6 °F /  27.0 °C 59.7 °F /  15.4 °C 29.9in /  1014.1hPa SSE 3.1mph /  5.0km/h 6.9mph /  11.1km/h 49% 0in /  0.0mm CLR
09:54 80.8 °F /  27.1 °C 59.7 °F /  15.4 °C 29.9in /  1014.1hPa SSW 3.1mph /  5.0km/h 5.8mph /  9.3km/h 49% 0in /  0.0mm CLR
09:59 81 °F /  27.2 °C 59.4 °F /  15.2 °C 29.9in /  1014.1hPa South 4mph /  6.4km/h 6.9mph /  11.1km/h 48% 0in /  0.0mm CLR
10:04 81.1 °F /  27.3 °C 59 °F /  15.0 °C 29.9in /  1014.0hPa South 4mph /  6.4km/h 5.8mph /  9.3km/h 47% 0in /  0.0mm CLR
10:09 81.3 °F /  27.4 °C 58.6 °F /  14.8 °C 29.9in /  1014.0hPa WSW 4.3mph /  6.9km/h 5.9mph /  9.5km/h 46% 0in /  0.0mm CLR
10:14 81.9 °F /  27.7 °C 58.5 °F /  14.7 °C 29.9in /  1014.0hPa West 4.3mph /  6.9km/h 4.7mph /  7.6km/h 45% 0in /  0.0mm CLR
10:19 82.2 °F /  27.9 °C 58.1 °F /  14.5 °C 29.9in /  1014.0hPa West 3.1mph /  5.0km/h 5.9mph /  9.5km/h 44% 0in /  0.0mm CLR
10:24 82.8 °F /  28.2 °C 57.9 °F /  14.4 °C 29.9in /  1014.0hPa West 3.1mph /  5.0km/h 5.2mph /  8.4km/h 43% 0in /  0.0mm CLR
10:29 83.1 °F /  28.4 °C 58.3 °F /  14.6 °C 29.9in /  1014.0hPa WSW 3.6mph /  5.8km/h 4.7mph /  7.6km/h 43% 0in /  0.0mm CLR
10:34 83.3 °F /  28.5 °C 57.7 °F /  14.3 °C 30in /  1014.2hPa WSW 3.6mph /  5.8km/h 5.8mph /  9.3km/h 42% 0in /  0.0mm CLR
10:39 83.7 °F /  28.7 °C 58.1 °F /  14.5 °C 30in /  1014.2hPa SSW 3.1mph /  5.0km/h 5.8mph /  9.3km/h 42% 0in /  0.0mm CLR
10:44 84 °F /  28.9 °C 57.7 °F /  14.3 °C 30in /  1014.2hPa SSW 3.1mph /  5.0km/h 5.8mph /  9.3km/h 41% 0in /  0.0mm CLR
10:49 84 °F /  28.9 °C 57.7 °F /  14.3 °C 29.9in /  1014.1hPa SW 3.6mph /  5.8km/h 4.6mph /  7.4km/h 41% 0in /  0.0mm CLR
10:54 84.6 °F /  29.2 °C 58.3 °F /  14.6 °C 29.9in /  1014.1hPa WNW 3.6mph /  5.8km/h 4.6mph /  7.4km/h 41% 0in /  0.0mm CLR
10:59 84.9 °F /  29.4 °C 57.9 °F /  14.4 °C 29.9in /  1014.1hPa WSW 2.4mph /  3.9km/h 4.6mph /  7.4km/h 40% 0in /  0.0mm CLR
11:04 85.3 °F /  29.6 °C 58.3 °F /  14.6 °C 29.9in /  1014.1hPa West 2.4mph /  3.9km/h 3.5mph /  5.6km/h 40% 0in /  0.0mm CLR
11:09 85.8 °F /  29.9 °C 58.6 °F /  14.8 °C 29.9in /  1014.1hPa West 1.8mph /  2.9km/h   40% 0in /  0.0mm CLR
11:14 86.7 °F /  30.4 °C 58.1 °F /  14.5 °C 29.9in /  1014.1hPa NW 1.8mph /  2.9km/h 4mph /  6.4km/h 38% 0in /  0.0mm CLR
11:19 87.1 °F /  30.6 °C 57.7 °F /  14.3 °C 29.9in /  1014.0hPa NNW 2mph /  3.2km/h 3.5mph /  5.6km/h 37% 0in /  0.0mm CLR
11:24 87.3 °F /  30.7 °C 57.7 °F /  14.3 °C 29.9in /  1014.0hPa NNW 2mph /  3.2km/h 3.5mph /  5.6km/h 37% 0in /  0.0mm CLR
11:29 87.8 °F /  31.0 °C 56.7 °F /  13.7 °C 29.9in /  1014.0hPa WNW 2mph /  3.2km/h 3.6mph /  5.8km/h 35% 0in /  0.0mm CLR
11:34 88.2 °F /  31.2 °C 57 °F /  13.9 °C 29.9in /  1014.0hPa NW 2mph /  3.2km/h 4.6mph /  7.4km/h 35% 0in /  0.0mm CLR
11:39 88.9 °F /  31.6 °C 56.8 °F /  13.8 °C 29.9in /  1014.0hPa WNW 2.4mph /  3.9km/h 5.9mph /  9.5km/h 34% 0in /  0.0mm CLR
11:44 89.1 °F /  31.7 °C 57 °F /  13.9 °C 29.9in /  1014.0hPa WNW 2.4mph /  3.9km/h 4.6mph /  7.4km/h 34% 0in /  0.0mm CLR
11:49 89.4 °F /  31.9 °C 57.4 °F /  14.1 °C 29.9in /  1013.8hPa East 2.4mph /  3.9km/h 5.8mph /  9.3km/h 34% 0in /  0.0mm CLR
11:54 89.4 °F /  31.9 °C 57.4 °F /  14.1 °C 29.9in /  1013.8hPa East 2.4mph /  3.9km/h 2.3mph /  3.7km/h 34% 0in /  0.0mm CLR
11:59 90.1 °F /  32.3 °C 57.2 °F /  14.0 °C 29.9in /  1013.8hPa NE 2.4mph /  3.9km/h 5.9mph /  9.5km/h 33% 0in /  0.0mm CLR
12:04 90.3 °F /  32.4 °C 56.5 °F /  13.6 °C 29.9in /  1013.7hPa NE 2.4mph /  3.9km/h 5.2mph /  8.4km/h 32% 0in /  0.0mm CLR
12:09 90.3 °F /  32.4 °C 56.5 °F /  13.6 °C 29.9in /  1013.7hPa North 4mph /  6.4km/h 5.8mph /  9.3km/h 32% 0in /  0.0mm CLR
12:14 90.7 °F /  32.6 °C 55.9 °F /  13.3 °C 29.9in /  1013.7hPa NE 4mph /  6.4km/h 4.6mph /  7.4km/h 31% 0in /  0.0mm CLR
12:19 91 °F /  32.8 °C 56.1 °F /  13.4 °C 29.9in /  1013.6hPa NW 4mph /  6.4km/h 6.9mph /  11.1km/h 31% 0in /  0.0mm CLR
12:24 91.2 °F /  32.9 °C 55.6 °F /  13.1 °C 29.9in /  1013.6hPa NNE 4mph /  6.4km/h 10.4mph /  16.7km/h 30% 0in /  0.0mm CLR
12:29 91.2 °F /  32.9 °C 56.5 °F /  13.6 °C 29.9in /  1013.6hPa North 5.4mph /  8.7km/h 3.5mph /  5.6km/h 31% 0in /  0.0mm CLR
12:34 91.8 °F /  33.2 °C 55.9 °F /  13.3 °C 29.9in /  1013.5hPa NNE 5.4mph /  8.7km/h 6.9mph /  11.1km/h 30% 0in /  0.0mm CLR
12:39 91.8 °F /  33.2 °C 55.9 °F /  13.3 °C 29.9in /  1013.5hPa NE 4.3mph /  6.9km/h 9.7mph /  15.6km/h 30% 0in /  0.0mm CLR
12:44 92.1 °F /  33.4 °C 56.1 °F /  13.4 °C 29.9in /  1013.5hPa NNE 4.3mph /  6.9km/h 5.4mph /  8.7km/h 30% 0in /  0.0mm CLR
12:49 92.5 °F /  33.6 °C 56.5 °F /  13.6 °C 29.9in /  1013.4hPa NE 4.7mph /  7.6km/h 3.5mph /  5.6km/h 30% 0in /  0.0mm CLR
12:54 93 °F /  33.9 °C 57 °F /  13.9 °C 29.9in /  1013.4hPa NE 4.7mph /  7.6km/h 10.4mph /  16.7km/h 30% 0in /  0.0mm CLR
12:59 93.4 °F /  34.1 °C 56.5 °F /  13.6 °C 29.9in /  1013.4hPa NNE 4mph /  6.4km/h 11.5mph /  18.5km/h 29% 0in /  0.0mm CLR
13:04 93.6 °F /  34.2 °C 56.5 °F /  13.6 °C 29.9in /  1013.3hPa NNE 4mph /  6.4km/h 5.8mph /  9.3km/h 29% 0in /  0.0mm CLR
13:09 93.9 °F /  34.4 °C 55.9 °F /  13.3 °C 29.9in /  1013.3hPa NE 4.7mph /  7.6km/h 10.4mph /  16.7km/h 28% 0in /  0.0mm CLR
13:14 93.9 °F /  34.4 °C 55.9 °F /  13.3 °C 29.9in /  1013.3hPa North 4.7mph /  7.6km/h 12.7mph /  20.4km/h 28% 0in /  0.0mm CLR
13:19 94.3 °F /  34.6 °C 55.2 °F /  12.9 °C 29.9in /  1013.1hPa ENE 6.4mph /  10.3km/h 6.9mph /  11.1km/h 27% 0in /  0.0mm CLR
13:24 94.3 °F /  34.6 °C 54.1 °F /  12.3 °C 29.9in /  1013.1hPa NNE 6.4mph /  10.3km/h 11.5mph /  18.5km/h 26% 0in /  0.0mm CLR
13:29 94.6 °F /  34.8 °C 53.4 °F /  11.9 °C 29.9in /  1013.1hPa NE 6.9mph /  11.1km/h 10.4mph /  16.7km/h 25% 0in /  0.0mm CLR
13:34 94.6 °F /  34.8 °C 53.4 °F /  11.9 °C 29.9in /  1013.0hPa NNE 6.9mph /  11.1km/h 10mph /  16.1km/h 25% 0in /  0.0mm CLR
13:39 95 °F /  35.0 °C 53.8 °F /  12.1 °C 29.9in /  1013.0hPa NNE 6.9mph /  11.1km/h 10.4mph /  16.7km/h 25% 0in /  0.0mm CLR
13:44 95.4 °F /  35.2 °C 55 °F /  12.8 °C 29.9in /  1013.0hPa NNE 6.9mph /  11.1km/h 12.7mph /  20.4km/h 26% 0in /  0.0mm CLR
13:49 95.4 °F /  35.2 °C 56.1 °F /  13.4 °C 29.9in /  1012.8hPa East 6.9mph /  11.1km/h 10.4mph /  16.7km/h 27% 0in /  0.0mm CLR
13:54 95.9 °F /  35.5 °C 55.6 °F /  13.1 °C 29.9in /  1012.8hPa NNE 6.9mph /  11.1km/h 15mph /  24.1km/h 26% 0in /  0.0mm CLR
13:59 95.7 °F /  35.4 °C 56.5 °F /  13.6 °C 29.9in /  1012.8hPa NE 6.4mph /  10.3km/h 13.8mph /  22.2km/h 27% 0in /  0.0mm CLR
14:04 96.3 °F /  35.7 °C 56.8 °F /  13.8 °C 29.9in /  1012.6hPa NE 6.4mph /  10.3km/h 9.2mph /  14.8km/h 27% 0in /  0.0mm CLR
14:09 97 °F /  36.1 °C 56.5 °F /  13.6 °C 29.9in /  1012.6hPa North 5.9mph /  9.5km/h 9.2mph /  14.8km/h 26% 0in /  0.0mm CLR
14:14 97 °F /  36.1 °C 56.5 °F /  13.6 °C 29.9in /  1012.6hPa NNE 5.9mph /  9.5km/h 12.7mph /  20.4km/h 26% 0in /  0.0mm CLR
14:19 97 °F /  36.1 °C 57.6 °F /  14.2 °C 29.9in /  1012.4hPa NE 6.9mph /  11.1km/h 8.7mph /  14.0km/h 27% 0in /  0.0mm CLR
14:24 97.3 °F /  36.3 °C 56.7 °F /  13.7 °C 29.9in /  1012.4hPa NNE 6.9mph /  11.1km/h 15mph /  24.1km/h 26% 0in /  0.0mm CLR
14:29 97.5 °F /  36.4 °C 56.8 °F /  13.8 °C 29.9in /  1012.4hPa NE 6.9mph /  11.1km/h 13.8mph /  22.2km/h 26% 0in /  0.0mm CLR
14:34 97.3 °F /  36.3 °C 56.7 °F /  13.7 °C 29.9in /  1012.3hPa ENE 6.9mph /  11.1km/h 12.7mph /  20.4km/h 26% 0in /  0.0mm CLR
14:39 97.7 °F /  36.5 °C 55.9 °F /  13.3 °C 29.9in /  1012.3hPa ESE 9.2mph /  14.8km/h 13mph /  20.9km/h 25% 0in /  0.0mm CLR
14:44 98.1 °F /  36.7 °C 56.1 °F /  13.4 °C 29.9in /  1012.3hPa NE 9.2mph /  14.8km/h 13.8mph /  22.2km/h 25% 0in /  0.0mm CLR
14:49 98.2 °F /  36.8 °C 55.2 °F /  12.9 °C 29.9in /  1012.0hPa NE 8.1mph /  13.0km/h 13.8mph /  22.2km/h 24% 0in /  0.0mm CLR
14:54 97.9 °F /  36.6 °C 55 °F /  12.8 °C 29.9in /  1012.0hPa NNE 8.1mph /  13.0km/h 15mph /  24.1km/h 24% 0in /  0.0mm CLR
14:59 98.1 °F /  36.7 °C 56.1 °F /  13.4 °C 29.9in /  1012.0hPa NE 9.7mph /  15.6km/h 11.5mph /  18.5km/h 25% 0in /  0.0mm CLR
15:04 98.1 °F /  36.7 °C 56.1 °F /  13.4 °C 29.9in /  1012.0hPa East 9.7mph /  15.6km/h 13.8mph /  22.2km/h 25% 0in /  0.0mm CLR
15:09 97.9 °F /  36.6 °C 56.1 °F /  13.4 °C 29.9in /  1012.0hPa NNE 9.7mph /  15.6km/h 13.8mph /  22.2km/h 25% 0in /  0.0mm CLR
15:14 98.1 °F /  36.7 °C 56.1 °F /  13.4 °C 29.9in /  1012.0hPa NNE 9.7mph /  15.6km/h 13.8mph /  22.2km/h 25% 0in /  0.0mm CLR
15:19 98.1 °F /  36.7 °C 56.1 °F /  13.4 °C 29.9in /  1012.0hPa NNE 9.7mph /  15.6km/h 17.3mph /  27.8km/h 25% 0in /  0.0mm CLR
15:24 98.1 °F /  36.7 °C 56.1 °F /  13.4 °C 29.9in /  1012.0hPa SE 9.7mph /  15.6km/h 13.8mph /  22.2km/h 25% 0in /  0.0mm CLR
15:29 97.9 °F /  36.6 °C 56.1 °F /  13.4 °C 29.9in /  1012.0hPa ENE 10mph /  16.1km/h 12.7mph /  20.4km/h 25% 0in /  0.0mm CLR
15:34 97.3 °F /  36.3 °C 55.6 °F /  13.1 °C 29.9in /  1012.0hPa NE 10mph /  16.1km/h 15mph /  24.1km/h 25% 0in /  0.0mm CLR
15:39 97.5 °F /  36.4 °C 56.8 °F /  13.8 °C 29.9in /  1012.0hPa ENE 10mph /  16.1km/h 13.8mph /  22.2km/h 26% 0in /  0.0mm CLR
15:44 97.5 °F /  36.4 °C 57.9 °F /  14.4 °C 29.9in /  1012.0hPa NNE 10mph /  16.1km/h 21.9mph /  35.2km/h 27% 0in /  0.0mm CLR
15:49 97.2 °F /  36.2 °C 57.6 °F /  14.2 °C 29.9in /  1011.9hPa NE 10.2mph /  16.4km/h 11.5mph /  18.5km/h 27% 0in /  0.0mm CLR
15:54 96.8 °F /  36.0 °C 59.4 °F /  15.2 °C 29.9in /  1011.9hPa NE 10.2mph /  16.4km/h 21.9mph /  35.2km/h 29% 0in /  0.0mm CLR
15:59 96.6 °F /  35.9 °C 59.2 °F /  15.1 °C 29.9in /  1011.9hPa ENE 12.3mph /  19.8km/h 16.1mph /  25.9km/h 29% 0in /  0.0mm CLR
16:04 96.6 °F /  35.9 °C 59.2 °F /  15.1 °C 29.9in /  1011.9hPa NNE 12.3mph /  19.8km/h 16.1mph /  25.9km/h 29% 0in /  0.0mm CLR
16:09 96.4 °F /  35.8 °C 59.9 °F /  15.5 °C 29.9in /  1011.9hPa NE 12.3mph /  19.8km/h 23mph /  37.0km/h 30% 0in /  0.0mm CLR
16:14 96.3 °F /  35.7 °C 59.7 °F /  15.4 °C 29.9in /  1011.9hPa NE 12.3mph /  19.8km/h 16.1mph /  25.9km/h 30% 0in /  0.0mm CLR
16:19 96.3 °F /  35.7 °C 59.7 °F /  15.4 °C 29.9in /  1011.7hPa NE 12.3mph /  19.8km/h 16.1mph /  25.9km/h 30% 0in /  0.0mm CLR
16:24 95.9 °F /  35.5 °C 59.5 °F /  15.3 °C 29.9in /  1011.7hPa NE 12.3mph /  19.8km/h 20.7mph /  33.3km/h 30% 0in /  0.0mm CLR
16:29 95.7 °F /  35.4 °C 59.4 °F /  15.2 °C 29.9in /  1011.7hPa ENE 12.3mph /  19.8km/h 19.6mph /  31.5km/h 30% 0in /  0.0mm CLR
16:34 95.7 °F /  35.4 °C 59.4 °F /  15.2 °C 29.9in /  1011.7hPa NNE 12.3mph /  19.8km/h 16.1mph /  25.9km/h 30% 0in /  0.0mm CLR
16:39 95.5 °F /  35.3 °C 59.2 °F /  15.1 °C 29.9in /  1011.7hPa ENE 12.3mph /  19.8km/h 18.4mph /  29.6km/h 30% 0in /  0.0mm CLR
16:44 95.5 °F /  35.3 °C 59.2 °F /  15.1 °C 29.9in /  1011.7hPa NE 12.3mph /  19.8km/h 17.3mph /  27.8km/h 30% 0in /  0.0mm CLR
16:49 95.7 °F /  35.4 °C 60.3 °F /  15.7 °C 29.9in /  1011.8hPa NNE 11.8mph /  19.0km/h 12.7mph /  20.4km/h 31% 0in /  0.0mm CLR
16:54 95.9 °F /  35.5 °C 59.5 °F /  15.3 °C 29.9in /  1011.8hPa NNE 11.8mph /  19.0km/h 16.8mph /  27.0km/h 30% 0in /  0.0mm CLR
16:59 95.4 °F /  35.2 °C 59.9 °F /  15.5 °C 29.9in /  1011.8hPa ENE 11.4mph /  18.3km/h 17.3mph /  27.8km/h 31% 0in /  0.0mm CLR
17:04 95.2 °F /  35.1 °C 60.6 °F /  15.9 °C 29.9in /  1011.7hPa NNE 11.4mph /  18.3km/h 18.4mph /  29.6km/h 32% 0in /  0.0mm CLR
17:09 95.2 °F /  35.1 °C 60.6 °F /  15.9 °C 29.9in /  1011.7hPa NE 10.7mph /  17.2km/h 14mph /  22.5km/h 32% 0in /  0.0mm CLR
17:14 95 °F /  35.0 °C 59.5 °F /  15.3 °C 29.9in /  1011.7hPa North 10.7mph /  17.2km/h 15mph /  24.1km/h 31% 0in /  0.0mm CLR
17:19 94.5 °F /  34.7 °C 59.2 °F /  15.1 °C 29.9in /  1011.6hPa ENE 10.7mph /  17.2km/h 19.6mph /  31.5km/h 31% 0in /  0.0mm CLR
17:24 94.5 °F /  34.7 °C 59.2 °F /  15.1 °C 29.9in /  1011.6hPa ENE 10.7mph /  17.2km/h 12.7mph /  20.4km/h 31% 0in /  0.0mm CLR
17:29 94.5 °F /  34.7 °C 59.2 °F /  15.1 °C 29.9in /  1011.6hPa ENE 10.7mph /  17.2km/h 11.5mph /  18.5km/h 31% 0in /  0.0mm CLR
17:34 94.3 °F /  34.6 °C 58.1 °F /  14.5 °C 29.9in /  1011.7hPa NE 10.7mph /  17.2km/h 15mph /  24.1km/h 30% 0in /  0.0mm CLR
17:39 94.5 °F /  34.7 °C 57.4 °F /  14.1 °C 29.9in /  1011.7hPa NNE 10.7mph /  17.2km/h 13.7mph /  22.0km/h 29% 0in /  0.0mm CLR
17:44 94.5 °F /  34.7 °C 57.4 °F /  14.1 °C 29.9in /  1011.7hPa NNE 10.7mph /  17.2km/h 16.1mph /  25.9km/h 29% 0in /  0.0mm CLR
17:49 94.5 °F /  34.7 °C 56.3 °F /  13.5 °C 29.9in /  1011.7hPa ENE 11.2mph /  18.0km/h 17.3mph /  27.8km/h 28% 0in /  0.0mm CLR
17:54 94.5 °F /  34.7 °C 56.3 °F /  13.5 °C 29.9in /  1011.7hPa ENE 11.2mph /  18.0km/h 15mph /  24.1km/h 28% 0in /  0.0mm CLR
17:59 94.5 °F /  34.7 °C 56.3 °F /  13.5 °C 29.9in /  1011.7hPa NE 10.2mph /  16.4km/h 14.7mph /  23.7km/h 28% 0in /  0.0mm CLR
18:04 93.9 °F /  34.4 °C 55.9 °F /  13.3 °C 29.9in /  1011.7hPa ENE 10.2mph /  16.4km/h 18.4mph /  29.6km/h 28% 0in /  0.0mm CLR
18:09 93.6 °F /  34.2 °C 56.5 °F /  13.6 °C 29.9in /  1011.7hPa NNE 11.2mph /  18.0km/h 14mph /  22.5km/h 29% 0in /  0.0mm CLR
18:14 93 °F /  33.9 °C 56.1 °F /  13.4 °C 29.9in /  1011.7hPa East 11.2mph /  18.0km/h 16.1mph /  25.9km/h 29% 0in /  0.0mm CLR
18:19 93.2 °F /  34.0 °C 56.1 °F /  13.4 °C 29.9in /  1011.9hPa NE 10.7mph /  17.2km/h 15.2mph /  24.5km/h 29% 0in /  0.0mm CLR
18:24 93 °F /  33.9 °C 56.1 °F /  13.4 °C 29.9in /  1011.9hPa NE 10.7mph /  17.2km/h 13.8mph /  22.2km/h 29% 0in /  0.0mm CLR
18:29 93 °F /  33.9 °C 55 °F /  12.8 °C 29.9in /  1011.9hPa ENE 8.7mph /  14.0km/h 10.4mph /  16.7km/h 28% 0in /  0.0mm CLR
18:34 93 °F /  33.9 °C 55 °F /  12.8 °C 29.9in /  1012.0hPa East 8.7mph /  14.0km/h 15mph /  24.1km/h 28% 0in /  0.0mm CLR
18:39 92.8 °F /  33.8 °C 54.9 °F /  12.7 °C 29.9in /  1012.0hPa NE 8.5mph /  13.7km/h 13.5mph /  21.7km/h 28% 0in /  0.0mm CLR
18:44 92.7 °F /  33.7 °C 54.9 °F /  12.7 °C 29.9in /  1012.0hPa ENE 8.5mph /  13.7km/h 11.5mph /  18.5km/h 28% 0in /  0.0mm CLR
18:49 92.5 °F /  33.6 °C 54.7 °F /  12.6 °C 29.9in /  1012.1hPa NE 7.6mph /  12.2km/h 11.5mph /  18.5km/h 28% 0in /  0.0mm CLR
18:54 92.3 °F /  33.5 °C 54.5 °F /  12.5 °C 29.9in /  1012.1hPa East 7.6mph /  12.2km/h 9.2mph /  14.8km/h 28% 0in /  0.0mm CLR
18:59 92.1 °F /  33.4 °C 54.3 °F /  12.4 °C 29.9in /  1012.1hPa NE 7.6mph /  12.2km/h 12.7mph /  20.4km/h 28% 0in /  0.0mm CLR
19:04 91.9 °F /  33.3 °C 55 °F /  12.8 °C 29.9in /  1012.0hPa ENE 7.6mph /  12.2km/h 6.9mph /  11.1km/h 29% 0in /  0.0mm CLR
19:09 91.9 °F /  33.3 °C 54.1 °F /  12.3 °C 29.9in /  1012.0hPa NNE 5.9mph /  9.5km/h 8.1mph /  13.0km/h 28% 0in /  0.0mm CLR
19:14 91.8 °F /  33.2 °C 54 °F /  12.2 °C 29.9in /  1012.0hPa ENE 5.9mph /  9.5km/h 10.4mph /  16.7km/h 28% 0in /  0.0mm CLR
19:19 91.6 °F /  33.1 °C 54 °F /  12.2 °C 29.9in /  1011.9hPa NE 6.4mph /  10.3km/h 11.8mph /  19.0km/h 28% 0in /  0.0mm CLR
19:24 91 °F /  32.8 °C 53.4 °F /  11.9 °C 29.9in /  1011.9hPa NNE 6.4mph /  10.3km/h 13.8mph /  22.2km/h 28% 0in /  0.0mm CLR
19:29 91 °F /  32.8 °C 53.4 °F /  11.9 °C 29.9in /  1011.9hPa NE 8.7mph /  14.0km/h 11.2mph /  18.0km/h 28% 0in /  0.0mm CLR
19:34 90.9 °F /  32.7 °C 53.2 °F /  11.8 °C 29.9in /  1011.9hPa NE 8.7mph /  14.0km/h 10.4mph /  16.7km/h 28% 0in /  0.0mm CLR
19:39 90.9 °F /  32.7 °C 52.3 °F /  11.3 °C 29.9in /  1011.9hPa NE 6.9mph /  11.1km/h 13.8mph /  22.2km/h 27% 0in /  0.0mm CLR
19:44 90.7 °F /  32.6 °C 53.1 °F /  11.7 °C 29.9in /  1011.9hPa ENE 6.9mph /  11.1km/h 15mph /  24.1km/h 28% 0in /  0.0mm CLR
19:49 90.5 °F /  32.5 °C 52.9 °F /  11.6 °C 29.9in /  1011.9hPa NNE 8.7mph /  14.0km/h 11.5mph /  18.5km/h 28% 0in /  0.0mm CLR
19:54 90.5 °F /  32.5 °C 52 °F /  11.1 °C 29.9in /  1011.9hPa NE 8.7mph /  14.0km/h 11.5mph /  18.5km/h 27% 0in /  0.0mm CLR
19:59 90.3 °F /  32.4 °C 51.8 °F /  11.0 °C 29.9in /  1011.9hPa NNE 6.9mph /  11.1km/h 13.8mph /  22.2km/h 27% 0in /  0.0mm CLR
20:04 90.1 °F /  32.3 °C 51.6 °F /  10.9 °C 29.9in /  1012.0hPa NE 6.9mph /  11.1km/h 13.8mph /  22.2km/h 27% 0in /  0.0mm CLR
20:09 90.1 °F /  32.3 °C 51.6 °F /  10.9 °C 29.9in /  1012.0hPa ENE 7.6mph /  12.2km/h 10.4mph /  16.7km/h 27% 0in /  0.0mm CLR
20:14 90 °F /  32.2 °C 51.4 °F /  10.8 °C 29.9in /  1012.0hPa NE 7.6mph /  12.2km/h 9.2mph /  14.8km/h 27% 0in /  0.0mm CLR
20:19 90 °F /  32.2 °C 51.4 °F /  10.8 °C 29.9in /  1012.1hPa North 6.9mph /  11.1km/h 9.2mph /  14.8km/h 27% 0in /  0.0mm CLR
20:24 89.8 °F /  32.1 °C 51.3 °F /  10.7 °C 29.9in /  1012.1hPa NE 6.9mph /  11.1km/h 10.4mph /  16.7km/h 27% 0in /  0.0mm CLR
20:29 89.4 °F /  31.9 °C 51.1 °F /  10.6 °C 29.9in /  1012.1hPa NNE 7.4mph /  11.9km/h 9.2mph /  14.8km/h 27% 0in /  0.0mm CLR
20:34 89.1 °F /  31.7 °C 51.6 °F /  10.9 °C 29.9in /  1011.9hPa NE 7.4mph /  11.9km/h 11.5mph /  18.5km/h 28% 0in /  0.0mm CLR
20:39 88.5 °F /  31.4 °C 52.2 °F /  11.2 °C 29.9in /  1011.9hPa NNE 7.4mph /  11.9km/h 9.2mph /  14.8km/h 29% 0in /  0.0mm CLR
20:44 88.2 °F /  31.2 °C 52.9 °F /  11.6 °C 29.9in /  1011.9hPa NNE 7.4mph /  11.9km/h 10.4mph /  16.7km/h 30% 0in /  0.0mm CLR
20:49 87.6 °F /  30.9 °C 52.3 °F /  11.3 °C 29.9in /  1012.0hPa NE 8.1mph /  13.0km/h 14.7mph /  23.7km/h 30% 0in /  0.0mm CLR
20:54 87.3 °F /  30.7 °C 52.9 °F /  11.6 °C 29.9in /  1012.0hPa NNE 8.1mph /  13.0km/h 12.7mph /  20.4km/h 31% 0in /  0.0mm CLR
20:59 87.1 °F /  30.6 °C 53.6 °F /  12.0 °C 29.9in /  1012.0hPa North 8.1mph /  13.0km/h 9.2mph /  14.8km/h 32% 0in /  0.0mm CLR
21:04 86.7 °F /  30.4 °C 54.1 °F /  12.3 °C 29.9in /  1012.2hPa NNE 8.1mph /  13.0km/h 10.4mph /  16.7km/h 33% 0in /  0.0mm CLR
21:09 86.4 °F /  30.2 °C 54 °F /  12.2 °C 29.9in /  1012.2hPa ENE 6.9mph /  11.1km/h 12.7mph /  20.4km/h 33% 0in /  0.0mm CLR
21:14 86.2 °F /  30.1 °C 53.8 °F /  12.1 °C 29.9in /  1012.2hPa NNE 6.9mph /  11.1km/h 15mph /  24.1km/h 33% 0in /  0.0mm CLR
21:19 85.6 °F /  29.8 °C 54 °F /  12.2 °C 29.9in /  1011.8hPa NE 9.2mph /  14.8km/h 15mph /  24.1km/h 34% 0in /  0.0mm CLR
21:24 85.5 °F /  29.7 °C 54 °F /  12.2 °C 29.9in /  1011.8hPa NE 9.2mph /  14.8km/h 11.5mph /  18.5km/h 34% 0in /  0.0mm CLR
21:29 85.3 °F /  29.6 °C 52.9 °F /  11.6 °C 29.9in /  1011.8hPa NE 9.2mph /  14.8km/h 9.2mph /  14.8km/h 33% 0in /  0.0mm CLR
21:34 85.1 °F /  29.5 °C 52.9 °F /  11.6 °C 29.9in /  1011.8hPa NE 9.2mph /  14.8km/h 12.7mph /  20.4km/h 33% 0in /  0.0mm CLR
21:39 84.9 °F /  29.4 °C 52.5 °F /  11.4 °C 29.9in /  1011.8hPa NNE 8.5mph /  13.7km/h 9.2mph /  14.8km/h 33% 0in /  0.0mm CLR
21:44 84.9 °F /  29.4 °C 51.8 °F /  11.0 °C 29.9in /  1011.8hPa NE 8.5mph /  13.7km/h 9.2mph /  14.8km/h 32% 0in /  0.0mm CLR
21:49 84.7 °F /  29.3 °C 51.6 °F /  10.9 °C 29.9in /  1012.1hPa NNE 6.4mph /  10.3km/h 6.9mph /  11.1km/h 32% 0in /  0.0mm CLR
21:54 84.7 °F /  29.3 °C 51.6 °F /  10.9 °C 29.9in /  1012.1hPa North 6.4mph /  10.3km/h 5.8mph /  9.3km/h 32% 0in /  0.0mm CLR
21:59 84.6 °F /  29.2 °C 51.4 °F /  10.8 °C 29.9in /  1012.1hPa ENE 5.2mph /  8.4km/h 11.5mph /  18.5km/h 32% 0in /  0.0mm CLR
22:04 84.4 °F /  29.1 °C 52.2 °F /  11.2 °C 29.9in /  1012.2hPa East 5.2mph /  8.4km/h 6.9mph /  11.1km/h 33% 0in /  0.0mm CLR
22:09 84.4 °F /  29.1 °C 51.3 °F /  10.7 °C 29.9in /  1012.2hPa North 6.4mph /  10.3km/h 9.2mph /  14.8km/h 32% 0in /  0.0mm CLR
22:14 84 °F /  28.9 °C 51.1 °F /  10.6 °C 29.9in /  1012.2hPa NE 6.4mph /  10.3km/h 8.1mph /  13.0km/h 32% 0in /  0.0mm CLR
22:19 84 °F /  28.9 °C 51.1 °F /  10.6 °C 29.9in /  1012.2hPa ENE 5.2mph /  8.4km/h 9.2mph /  14.8km/h 32% 0in /  0.0mm CLR
22:24 83.8 °F /  28.8 °C 50.7 °F /  10.4 °C 29.9in /  1012.2hPa NE 5.2mph /  8.4km/h 8.5mph /  13.7km/h 32% 0in /  0.0mm CLR
22:29 83.8 °F /  28.8 °C 50.7 °F /  10.4 °C 29.9in /  1012.2hPa ENE 5.9mph /  9.5km/h 5.8mph /  9.3km/h 32% 0in /  0.0mm CLR
22:34 83.8 °F /  28.8 °C 50.7 °F /  10.4 °C 29.9in /  1012.1hPa NE 5.9mph /  9.5km/h 6.9mph /  11.1km/h 32% 0in /  0.0mm CLR
22:39 83.8 °F /  28.8 °C 50 °F /  10.0 °C 29.9in /  1012.1hPa ENE 5.4mph /  8.7km/h 10.4mph /  16.7km/h 31% 0in /  0.0mm CLR
22:44 83.8 °F /  28.8 °C 50 °F /  10.0 °C 29.9in /  1012.1hPa NE 5.4mph /  8.7km/h 8.1mph /  13.0km/h 31% 0in /  0.0mm CLR
22:49 83.7 °F /  28.7 °C 49.8 °F /  9.9 °C 29.9in /  1011.9hPa NNE 5.9mph /  9.5km/h 9.2mph /  14.8km/h 31% 0in /  0.0mm CLR
22:54 83.7 °F /  28.7 °C 50.7 °F /  10.4 °C 29.9in /  1011.9hPa ENE 5.9mph /  9.5km/h 6.9mph /  11.1km/h 32% 0in /  0.0mm CLR
22:59 83.5 °F /  28.6 °C 50.5 °F /  10.3 °C 29.9in /  1011.9hPa North 5.4mph /  8.7km/h 8.1mph /  13.0km/h 32% 0in /  0.0mm CLR
23:04 83.3 °F /  28.5 °C 49.5 °F /  9.7 °C 29.9in /  1012.0hPa ENE 5.4mph /  8.7km/h 8.1mph /  13.0km/h 31% 0in /  0.0mm CLR
23:09 83.1 °F /  28.4 °C 50.2 °F /  10.1 °C 29.9in /  1012.0hPa NE 5.2mph /  8.4km/h 8.1mph /  13.0km/h 32% 0in /  0.0mm CLR
23:14 82.8 °F /  28.2 °C 50.7 °F /  10.4 °C 29.9in /  1012.0hPa North 5.2mph /  8.4km/h 9.2mph /  14.8km/h 33% 0in /  0.0mm CLR
23:19 82.6 °F /  28.1 °C 52.2 °F /  11.2 °C 29.9in /  1012.0hPa NNE 6.2mph /  10.0km/h 10.4mph /  16.7km/h 35% 0in /  0.0mm CLR
23:24 82.6 °F /  28.1 °C 53.8 °F /  12.1 °C 29.9in /  1012.0hPa NNE 6.2mph /  10.0km/h 5.9mph /  9.5km/h 37% 0in /  0.0mm CLR
23:29 82.4 °F /  28.0 °C 54.1 °F /  12.3 °C 29.9in /  1012.0hPa WNW 4.7mph /  7.6km/h 4.6mph /  7.4km/h 38% 0in /  0.0mm CLR
23:34 82.2 °F /  27.9 °C 54.9 °F /  12.7 °C 29.9in /  1012.4hPa NNW 4.7mph /  7.6km/h 5.2mph /  8.4km/h 39% 0in /  0.0mm CLR
23:39 82 °F /  27.8 °C 55.2 °F /  12.9 °C 29.9in /  1012.4hPa NW 3.6mph /  5.8km/h 5.8mph /  9.3km/h 40% 0in /  0.0mm CLR
23:44 81.9 °F /  27.7 °C 56.5 °F /  13.6 °C 29.9in /  1012.4hPa NW 3.6mph /  5.8km/h 4.6mph /  7.4km/h 42% 0in /  0.0mm CLR
23:49 81.7 °F /  27.6 °C 57 °F /  13.9 °C 29.9in /  1012.6hPa North 4mph /  6.4km/h 4.7mph /  7.6km/h 43% 0in /  0.0mm CLR
23:54 81.7 °F /  27.6 °C 57 °F /  13.9 °C 29.9in /  1012.6hPa NNE 4mph /  6.4km/h 5.9mph /  9.5km/h 43% 0in /  0.0mm CLR
23:59 81.7 °F /  27.6 °C 57 °F /  13.9 °C 29.9in /  1012.6hPa NE 2.9mph /  4.7km/h 4mph /  6.4km/h 43% 0in /  0.0mm CLR
Murcia-Puente Tocinos, España
Compliments of Weather Underground - 2.75 mb

La estación de MeteoMurcia.com, publica sus datos en los siguientes proyectos:

Weather Underground PWS IMURCIAP2 Meteoclimatic www.awekas.at

W3Counter
Web Analytics